createdAt,value
2023-04-05T00:00:21.885Z,55.72
2023-04-05T00:01:53.823Z,55.83
2023-04-05T00:03:26.003Z,55.82
2023-04-05T00:04:58.578Z,55.73
2023-04-05T00:06:30.274Z,55.73
2023-04-05T00:08:02.329Z,55.49
2023-04-05T00:09:33.806Z,55.59
2023-04-05T00:11:06.221Z,55.67
2023-04-05T00:12:37.792Z,55.41
2023-04-05T00:14:09.268Z,55.95
2023-04-05T00:15:41.261Z,55.65
2023-04-05T00:17:13.526Z,55.52
2023-04-05T00:18:54.155Z,55.43
2023-04-05T00:20:26.087Z,55.90
2023-04-05T00:21:57.619Z,55.73
2023-04-05T00:23:29.575Z,55.84
2023-04-05T00:25:01.125Z,55.26
2023-04-05T00:26:32.687Z,55.56
2023-04-05T00:28:04.290Z,55.72
2023-04-05T00:29:36.104Z,55.28
2023-04-05T00:31:07.815Z,55.63
2023-04-05T00:32:39.328Z,55.39
2023-04-05T00:34:12.691Z,55.71
2023-04-05T00:35:44.258Z,55.34
2023-04-05T00:37:15.945Z,55.83
2023-04-05T00:38:47.866Z,55.54
2023-04-05T00:40:19.398Z,55.38
2023-04-05T00:41:50.962Z,55.77
2023-04-05T00:43:22.492Z,55.34
2023-04-05T00:44:54.068Z,55.64
2023-04-05T00:46:25.930Z,55.29
2023-04-05T00:47:57.513Z,55.33
2023-04-05T00:49:29.558Z,55.26
2023-04-05T00:51:01.138Z,55.97
2023-04-05T00:52:32.994Z,55.41
2023-04-05T00:54:04.871Z,55.50
2023-04-05T00:55:36.426Z,55.74
2023-04-05T00:57:08.250Z,55.37
2023-04-05T00:58:42.529Z,55.28
2023-04-05T01:00:15.298Z,56.04
2023-04-05T01:01:55.363Z,55.62
2023-04-05T01:03:27.730Z,55.55
2023-04-05T01:05:19.548Z,55.76
2023-04-05T01:07:08.380Z,55.79
2023-04-05T01:08:40.129Z,55.28
2023-04-05T01:10:12.139Z,55.37
2023-04-05T01:11:43.914Z,55.56
2023-04-05T01:13:18.755Z,55.38
2023-04-05T01:14:51.976Z,55.33
2023-04-05T01:16:23.567Z,55.67
2023-04-05T01:17:57.701Z,55.29
2023-04-05T01:19:31.809Z,55.05
2023-04-05T01:21:10.746Z,55.31
2023-04-05T01:22:42.336Z,55.63
2023-04-05T01:24:16.732Z,55.26
2023-04-05T01:26:00.126Z,55.44
2023-04-05T01:27:37.414Z,55.69
2023-04-05T01:29:25.856Z,55.60
2023-04-05T01:31:17.655Z,55.81
2023-04-05T01:33:07.910Z,55.54
2023-04-05T01:34:57.145Z,56.11
2023-04-05T01:36:37.836Z,55.56
2023-04-05T01:38:10.565Z,55.59
2023-04-05T01:39:42.086Z,55.79
2023-04-05T01:41:13.879Z,55.56
2023-04-05T01:42:46.781Z,55.99
2023-04-05T01:44:18.416Z,55.79
2023-04-05T01:45:50.011Z,55.55
2023-04-05T01:47:22.223Z,55.42
2023-04-05T01:48:53.745Z,55.43
2023-04-05T01:50:25.429Z,55.56
2023-04-05T01:51:56.987Z,55.47
2023-04-05T01:53:28.551Z,55.53
2023-04-05T01:55:00.167Z,55.66
2023-04-05T01:56:31.729Z,55.94
2023-04-05T01:58:03.239Z,55.56
2023-04-05T01:59:34.864Z,55.57
2023-04-05T02:01:06.509Z,55.31
2023-04-05T02:02:38.239Z,55.25
2023-04-05T02:04:09.740Z,54.97
2023-04-05T02:05:42.298Z,55.27
2023-04-05T02:07:13.783Z,55.36
2023-04-05T02:08:45.235Z,55.46
2023-04-05T02:10:17.877Z,55.36
2023-04-05T02:11:49.452Z,55.26
2023-04-05T02:13:24.116Z,55.60
2023-04-05T02:17:05.802Z,55.00
2023-04-05T02:18:58.366Z,55.61
2023-04-05T02:20:35.148Z,54.92
2023-04-05T02:38:04.922Z,56.29
2023-04-05T02:39:36.535Z,55.73
2023-04-05T02:41:08.744Z,55.68
2023-04-05T02:42:40.754Z,55.65
2023-04-05T02:44:12.874Z,55.70
2023-04-05T02:45:46.344Z,55.63
2023-04-05T02:47:21.805Z,56.04
2023-04-05T02:48:53.489Z,55.75
2023-04-05T02:50:25.210Z,55.92
2023-04-05T02:51:57.061Z,55.83
2023-04-05T02:53:28.686Z,56.05
2023-04-05T02:55:00.353Z,55.82
2023-04-05T02:56:32.654Z,55.88
2023-04-05T02:58:04.376Z,55.77
2023-04-05T02:59:36.829Z,55.54
2023-04-05T03:01:08.984Z,55.43
2023-04-05T03:02:40.659Z,55.84
2023-04-05T03:04:17.492Z,55.54
2023-04-05T03:05:49.550Z,55.45
2023-04-05T03:07:22.092Z,55.61
2023-04-05T03:08:53.988Z,55.77
2023-04-05T03:10:29.260Z,55.66
2023-04-05T03:12:04.104Z,56.41
2023-04-05T03:13:36.378Z,56.16
2023-04-05T03:15:08.752Z,56.11
2023-04-05T03:16:40.747Z,56.24
2023-04-05T03:18:12.413Z,55.83
2023-04-05T03:19:45.721Z,56.06
2023-04-05T03:21:18.625Z,55.65
2023-04-05T03:22:50.625Z,55.77
2023-04-05T03:24:22.382Z,55.81
2023-04-05T03:26:03.469Z,55.78
2023-04-05T03:27:35.356Z,55.84
2023-04-05T03:29:07.587Z,55.90
2023-04-05T03:30:39.184Z,55.84
2023-04-05T03:32:12.090Z,55.95
2023-04-05T03:33:43.727Z,56.08
2023-04-05T03:35:17.121Z,55.60
2023-04-05T03:36:49.791Z,55.77
2023-04-05T03:38:21.597Z,55.40
2023-04-05T03:39:53.593Z,55.53
2023-04-05T03:41:26.314Z,55.57
2023-04-05T03:42:57.945Z,55.84
2023-04-05T03:44:30.586Z,55.57
2023-04-05T03:46:02.133Z,55.37
2023-04-05T03:47:33.851Z,55.25
2023-04-05T03:49:06.455Z,55.37
2023-04-05T03:50:37.947Z,55.39
2023-04-05T03:52:09.977Z,55.50
2023-04-05T03:53:41.980Z,55.65
2023-04-05T03:55:17.010Z,55.22
2023-04-05T03:56:48.573Z,55.08
2023-04-05T03:58:20.106Z,55.48
2023-04-05T03:59:52.289Z,55.57
2023-04-05T04:01:23.875Z,55.35
2023-04-05T04:02:55.552Z,55.37
2023-04-05T04:04:28.185Z,55.82
2023-04-05T04:05:59.844Z,55.58
2023-04-05T04:07:31.697Z,56.42
2023-04-05T04:09:05.784Z,55.68
2023-04-05T04:10:37.703Z,55.72
2023-04-05T04:12:09.359Z,56.36
2023-04-05T04:13:41.245Z,55.91
2023-04-05T04:15:12.974Z,55.43
2023-04-05T04:16:44.635Z,55.76
2023-04-05T04:18:16.234Z,55.32
2023-04-05T04:19:47.713Z,55.92
2023-04-05T04:21:19.404Z,55.19
2023-04-05T04:22:53.970Z,55.22
2023-04-05T04:24:27.247Z,55.06
2023-04-05T04:25:59.246Z,55.64
2023-04-05T04:27:31.060Z,55.14
2023-04-05T04:29:06.379Z,55.49
2023-04-05T04:30:38.372Z,55.41
2023-04-05T04:32:10.999Z,55.05
2023-04-05T04:33:43.789Z,55.01
2023-04-05T04:35:18.628Z,55.31
2023-04-05T04:37:01.214Z,55.89
2023-04-05T04:38:35.091Z,55.54
2023-04-05T04:40:08.993Z,55.47
2023-04-05T04:41:47.228Z,56.12
2023-04-05T04:43:19.129Z,55.79
2023-04-05T04:44:50.670Z,55.99
2023-04-05T04:46:30.814Z,56.37
2023-04-05T04:48:05.134Z,55.77
2023-04-05T04:49:37.490Z,55.68
2023-04-05T04:51:09.228Z,55.85
2023-04-05T04:52:41.096Z,55.54
2023-04-05T04:54:13.327Z,55.72
2023-04-05T04:55:45.173Z,55.63
2023-04-05T04:57:16.642Z,55.65
2023-04-05T04:58:48.268Z,55.69
2023-04-05T05:00:20.748Z,55.73
2023-04-05T05:01:52.409Z,55.74
2023-04-05T05:03:24.019Z,56.13
2023-04-05T05:04:55.568Z,56.21
2023-04-05T05:16:15.533Z,55.80
2023-04-05T05:17:55.512Z,56.39
2023-04-05T05:19:27.147Z,56.23
2023-04-05T05:20:58.788Z,56.39
2023-04-05T05:22:30.557Z,56.35
2023-04-05T05:24:02.262Z,56.34
2023-04-05T05:25:34.198Z,56.28
2023-04-05T05:27:06.067Z,56.17
2023-04-05T05:28:38.889Z,55.92
2023-04-05T05:30:11.331Z,55.89
2023-04-05T05:31:42.931Z,55.86
2023-04-05T05:33:15.183Z,56.11
2023-04-05T05:34:48.943Z,55.97
2023-04-05T05:36:20.620Z,55.95
2023-04-05T05:37:53.116Z,56.15
2023-04-05T05:39:25.312Z,56.02
2023-04-05T05:41:00.837Z,56.01
2023-04-05T05:42:32.932Z,55.76
2023-04-05T05:44:04.657Z,55.98
2023-04-05T05:45:36.554Z,56.30
2023-04-05T05:47:08.248Z,55.65
2023-04-05T05:48:41.465Z,55.95
2023-04-05T05:50:17.570Z,56.00
2023-04-05T05:51:49.695Z,56.16
2023-04-05T05:53:24.581Z,55.87
2023-04-05T05:54:56.748Z,55.91
2023-04-05T05:56:28.936Z,55.89
2023-04-05T05:58:02.555Z,55.71
2023-04-05T05:59:34.161Z,55.42
2023-04-05T06:01:09.040Z,55.71
2023-04-05T06:02:41.474Z,55.94
2023-04-05T06:04:14.377Z,55.80
2023-04-05T06:05:56.055Z,55.62
2023-04-05T06:07:28.035Z,55.57
2023-04-05T06:08:59.825Z,55.68
2023-04-05T06:10:31.606Z,55.85
2023-04-05T06:12:03.656Z,55.64
2023-04-05T06:13:36.784Z,55.70
2023-04-05T06:15:08.847Z,55.86
2023-04-05T06:22:46.047Z,55.57
2023-04-05T06:24:32.242Z,55.68
2023-04-05T06:26:03.871Z,55.82
2023-04-05T06:27:35.601Z,55.61
2023-04-05T06:29:07.207Z,55.58
2023-04-05T06:31:02.938Z,55.63
2023-04-05T06:40:23.318Z,55.68
2023-04-05T06:41:54.921Z,55.79
2023-04-05T06:43:27.040Z,55.96
2023-04-05T06:44:58.791Z,55.84
2023-04-05T06:46:30.743Z,55.60
2023-04-05T06:48:02.913Z,55.84
2023-04-05T06:49:34.908Z,55.56
2023-04-05T06:51:07.086Z,55.47
2023-04-05T06:52:39.506Z,55.34
2023-04-05T06:54:12.512Z,55.74
2023-04-05T06:55:49.487Z,55.45
2023-04-05T06:57:21.271Z,55.65
2023-04-05T06:58:53.390Z,55.45
2023-04-05T07:00:25.225Z,55.19
2023-04-05T07:01:57.322Z,55.18
2023-04-05T07:03:29.036Z,55.21
2023-04-05T07:05:05.116Z,55.65
2023-04-05T07:06:39.448Z,55.27
2023-04-05T07:08:11.236Z,55.40
2023-04-05T07:09:42.812Z,55.14
2023-04-05T07:11:15.391Z,55.21
2023-04-05T07:12:49.873Z,55.38
2023-04-05T07:14:21.395Z,55.56
2023-04-05T07:15:53.189Z,55.31
2023-04-05T07:17:25.090Z,55.20
2023-04-05T07:18:57.270Z,55.25
2023-04-05T07:20:29.158Z,55.24
2023-04-05T07:22:01.289Z,55.15
2023-04-05T07:23:33.055Z,54.84
2023-04-05T07:25:05.706Z,55.05
2023-04-05T07:26:37.677Z,54.85
2023-04-05T07:28:09.304Z,54.93
2023-04-05T07:29:44.520Z,55.10
2023-04-05T07:31:17.314Z,54.80
2023-04-05T07:32:49.289Z,54.74
2023-04-05T07:34:20.963Z,54.89
2023-04-05T07:35:55.878Z,54.89
2023-04-05T07:37:27.786Z,54.99
2023-04-05T07:38:59.710Z,54.92
2023-04-05T07:40:31.478Z,54.81
2023-04-05T07:42:03.157Z,54.63
2023-04-05T07:43:34.788Z,54.93
2023-04-05T07:45:09.035Z,54.77
2023-04-05T07:46:47.619Z,54.81
2023-04-05T07:48:21.589Z,54.77
2023-04-05T07:49:53.219Z,54.90
2023-04-05T07:51:25.177Z,54.69
2023-04-05T07:52:56.794Z,54.80
2023-04-05T07:54:28.573Z,54.78
2023-04-05T07:56:03.983Z,54.43
2023-04-05T07:57:35.853Z,54.74
2023-04-05T07:59:07.954Z,54.63
2023-04-05T08:00:40.008Z,54.43
2023-04-05T08:02:14.535Z,54.69
2023-04-05T08:03:46.803Z,54.38
2023-04-05T08:05:18.609Z,54.37
2023-04-05T08:06:50.349Z,54.15
2023-04-05T08:08:22.238Z,54.32
2023-04-05T08:09:57.650Z,54.39
2023-04-05T08:11:29.212Z,54.32
2023-04-05T08:13:00.845Z,54.04
2023-04-05T08:14:32.476Z,54.27
2023-04-05T08:16:04.194Z,53.92
2023-04-05T08:17:35.978Z,54.05
2023-04-05T08:19:07.589Z,54.26
2023-04-05T08:20:40.844Z,54.50
2023-04-05T08:22:13.008Z,54.36
2023-04-05T08:23:44.656Z,54.27
2023-04-05T08:25:16.382Z,54.45
2023-04-05T08:26:48.802Z,54.12
2023-04-05T08:28:20.675Z,54.28
2023-04-05T08:29:52.276Z,54.22
2023-04-05T08:31:24.104Z,54.12
2023-04-05T08:32:55.735Z,54.52
2023-04-05T08:34:27.389Z,53.88
2023-04-05T08:36:03.594Z,54.39
2023-04-05T08:37:35.833Z,54.20
2023-04-05T08:39:07.476Z,54.62
2023-04-05T08:40:43.464Z,54.49
2023-04-05T08:42:27.137Z,54.32
2023-04-05T08:44:05.845Z,54.29
2023-04-05T08:45:38.855Z,54.79
2023-04-05T08:47:15.157Z,53.84
2023-04-05T08:48:46.902Z,53.95
2023-04-05T08:50:18.509Z,54.48
2023-04-05T08:51:50.285Z,54.09
2023-04-05T08:53:22.740Z,54.04
2023-04-05T08:54:55.477Z,53.60
2023-04-05T08:56:28.366Z,53.55
2023-04-05T08:58:00.634Z,53.65
2023-04-05T08:59:35.521Z,54.00
2023-04-05T09:01:07.374Z,53.75
2023-04-05T09:02:39.210Z,53.64
2023-04-05T09:04:15.099Z,53.48
2023-04-05T09:05:47.187Z,53.38
2023-04-05T09:07:18.835Z,53.56
2023-04-05T09:08:50.503Z,53.33
2023-04-05T09:10:22.414Z,52.90
2023-04-05T09:11:53.944Z,53.26
2023-04-05T09:13:25.715Z,53.33
2023-04-05T09:14:57.318Z,52.65
2023-04-05T09:16:29.317Z,52.63
2023-04-05T09:18:01.791Z,52.73
2023-04-05T09:19:34.391Z,52.88
2023-04-05T09:21:06.664Z,52.79
2023-04-05T09:22:45.751Z,52.63
2023-04-05T09:24:25.389Z,52.93
2023-04-05T09:25:57.648Z,52.57
2023-04-05T09:27:29.231Z,52.58
2023-04-05T09:29:01.286Z,52.14
2023-04-05T09:30:33.636Z,52.13
2023-04-05T09:32:06.174Z,52.06
2023-04-05T09:33:38.050Z,52.48
2023-04-05T09:35:09.784Z,52.57
2023-04-05T09:36:44.563Z,52.19
2023-04-05T09:38:16.465Z,52.49
2023-04-05T09:39:49.910Z,52.35
2023-04-05T09:41:21.802Z,52.51
2023-04-05T09:42:54.199Z,52.15
2023-04-05T09:44:25.955Z,52.28
2023-04-05T09:45:58.243Z,51.96
2023-04-05T09:47:35.189Z,51.58
2023-04-05T09:49:09.570Z,51.69
2023-04-05T09:50:41.580Z,51.51
2023-04-05T09:52:22.536Z,52.09
2023-04-05T09:53:58.930Z,51.50
2023-04-05T09:55:31.026Z,52.19
2023-04-05T09:57:04.563Z,51.50
2023-04-05T09:58:36.217Z,51.51
2023-04-05T10:00:17.916Z,52.10
2023-04-05T10:01:51.765Z,51.93
2023-04-05T10:03:25.464Z,51.13
2023-04-05T10:04:57.123Z,52.02
2023-04-05T10:06:38.755Z,51.52
2023-04-05T10:08:10.456Z,51.33
2023-04-05T10:09:42.411Z,51.19
2023-04-05T10:11:13.986Z,51.72
2023-04-05T10:12:46.938Z,51.51
2023-04-05T10:14:18.551Z,51.12
2023-04-05T10:15:50.680Z,51.37
2023-04-05T10:17:38.033Z,50.99
2023-04-05T10:19:12.936Z,50.77
2023-04-05T10:20:45.290Z,51.25
2023-04-05T10:22:18.226Z,51.45
2023-04-05T10:23:54.128Z,51.08
2023-04-05T10:25:40.251Z,50.92
2023-04-05T10:27:18.084Z,51.21
2023-04-05T10:28:51.917Z,51.23
2023-04-05T10:30:24.430Z,51.34
2023-04-05T10:31:59.519Z,51.37
2023-04-05T10:33:42.605Z,51.29
2023-04-05T10:35:17.555Z,50.68
2023-04-05T10:36:50.092Z,50.95
2023-04-05T10:38:30.459Z,50.93
2023-04-05T10:40:03.329Z,50.72
2023-04-05T10:41:36.139Z,50.28
2023-04-05T10:43:08.710Z,50.63
2023-04-05T10:44:40.514Z,50.51
2023-04-05T10:46:12.320Z,50.46
2023-04-05T10:48:07.700Z,50.88
2023-04-05T10:49:49.666Z,50.89
2023-04-05T10:51:24.059Z,50.79
2023-04-05T10:52:55.720Z,50.39
2023-04-05T10:54:27.169Z,50.81
2023-04-05T10:55:58.731Z,50.47
2023-04-05T10:57:30.419Z,50.01
2023-04-05T10:59:02.172Z,50.44
2023-04-05T11:00:33.820Z,50.73
2023-04-05T11:02:05.936Z,49.83
2023-04-05T11:03:49.911Z,50.50
2023-04-05T11:05:32.422Z,49.65
2023-04-05T11:07:17.067Z,49.90
2023-04-05T11:08:49.219Z,50.16
2023-04-05T11:10:20.876Z,49.71
2023-04-05T11:11:52.802Z,49.85
2023-04-05T11:13:31.423Z,49.79
2023-04-05T11:15:22.385Z,50.58
2023-04-05T11:16:57.134Z,49.83
2023-04-05T11:18:28.933Z,49.77
2023-04-05T11:20:04.115Z,50.34
2023-04-05T11:21:36.072Z,50.32
2023-04-05T11:23:07.903Z,49.74
2023-04-05T11:24:56.854Z,50.29
2023-04-05T11:26:31.941Z,50.41
2023-04-05T11:28:05.410Z,50.26
2023-04-05T11:29:47.602Z,50.19
2023-04-05T11:31:20.482Z,50.22
2023-04-05T11:32:52.597Z,50.46
2023-04-05T11:34:25.404Z,50.53
2023-04-05T11:36:04.077Z,50.45
2023-04-05T11:37:54.630Z,49.87
2023-04-05T11:39:26.322Z,50.57
2023-04-05T11:41:17.649Z,50.26
2023-04-05T11:42:49.356Z,50.05
2023-04-05T11:44:21.274Z,50.22
2023-04-05T11:45:52.853Z,49.98
2023-04-05T11:47:24.601Z,49.65
2023-04-05T11:48:56.542Z,49.94
2023-04-05T11:50:28.473Z,50.17
2023-04-05T11:52:01.575Z,49.52
2023-04-05T11:53:33.263Z,49.54
2023-04-05T11:55:06.367Z,49.36
2023-04-05T11:56:38.069Z,49.74
2023-04-05T11:58:13.732Z,49.29
2023-04-05T11:59:46.003Z,49.22
2023-04-05T12:01:18.885Z,49.17
2023-04-05T12:02:56.091Z,49.23
2023-04-05T12:04:28.104Z,49.75
2023-04-05T12:06:00.770Z,49.79
2023-04-05T12:07:37.356Z,49.49
2023-04-05T12:09:08.980Z,49.41
2023-04-05T12:10:40.717Z,49.14
2023-04-05T12:12:18.781Z,49.20
2023-04-05T12:13:51.583Z,49.26
2023-04-05T12:15:30.839Z,49.18
2023-04-05T12:17:02.887Z,49.05
2023-04-05T12:18:34.910Z,48.78
2023-04-05T12:20:06.860Z,48.67
2023-04-05T12:21:38.378Z,48.70
2023-04-05T12:23:10.492Z,49.17
2023-04-05T12:24:42.158Z,48.87
2023-04-05T12:26:14.201Z,48.83
2023-04-05T12:27:47.002Z,48.76
2023-04-05T12:29:18.538Z,48.86
2023-04-05T12:30:50.898Z,49.07
2023-04-05T12:32:22.822Z,48.99
2023-04-05T12:33:54.947Z,48.75
2023-04-05T12:35:33.129Z,48.39
2023-04-05T12:37:04.879Z,48.59
2023-04-05T12:38:40.742Z,48.48
2023-04-05T12:40:13.188Z,49.07
2023-04-05T12:41:45.313Z,48.82
2023-04-05T12:43:20.597Z,48.85
2023-04-05T12:45:02.379Z,48.83
2023-04-05T12:46:43.677Z,48.94
2023-04-05T12:48:16.087Z,48.66
2023-04-05T12:49:47.700Z,48.27
2023-04-05T12:51:19.195Z,48.74
2023-04-05T12:52:54.226Z,48.60
2023-04-05T12:54:25.776Z,48.56
2023-04-05T12:55:58.845Z,48.42
2023-04-05T12:57:31.606Z,48.31
2023-04-05T12:59:04.225Z,48.24
2023-04-05T13:00:35.809Z,48.15
2023-04-05T13:02:07.569Z,48.45
2023-04-05T13:03:41.908Z,47.98
2023-04-05T13:05:13.662Z,48.23
2023-04-05T13:06:47.828Z,48.42
2023-04-05T13:08:19.702Z,47.96
2023-04-05T13:09:51.773Z,48.20
2023-04-05T13:11:23.572Z,48.31
2023-04-05T13:12:55.290Z,48.04
2023-04-05T13:14:26.859Z,48.16
2023-04-05T13:15:58.641Z,48.16
2023-04-05T13:17:30.305Z,48.10
2023-04-05T13:19:02.141Z,48.06
2023-04-05T13:20:33.761Z,48.04
2023-04-05T13:22:05.492Z,47.62
2023-04-05T13:23:40.615Z,47.82
2023-04-05T13:25:12.223Z,48.06
2023-04-05T13:26:43.851Z,48.01
2023-04-05T13:28:15.856Z,48.11
2023-04-05T13:29:47.841Z,47.48
2023-04-05T13:31:19.876Z,47.59
2023-04-05T13:32:51.723Z,47.94
2023-04-05T13:34:23.577Z,47.58
2023-04-05T13:35:55.747Z,48.16
2023-04-05T13:37:27.421Z,48.01
2023-04-05T13:38:59.290Z,47.47
2023-04-05T13:40:32.118Z,47.69
2023-04-05T13:42:04.055Z,48.05
2023-04-05T13:43:35.790Z,47.54
2023-04-05T13:45:08.094Z,47.51
2023-04-05T13:46:40.120Z,47.55
2023-04-05T13:48:11.861Z,47.73
2023-04-05T13:49:43.721Z,47.98
2023-04-05T13:51:15.792Z,47.57
2023-04-05T13:52:47.614Z,48.00
2023-04-05T13:54:21.819Z,47.58
2023-04-05T13:55:53.678Z,47.74
2023-04-05T13:57:25.452Z,48.08
2023-04-05T13:58:57.208Z,47.53
2023-04-05T14:00:28.982Z,47.45
2023-04-05T14:02:00.773Z,47.76
2023-04-05T14:03:32.736Z,47.58
2023-04-05T14:05:05.170Z,47.67
2023-04-05T14:06:37.141Z,47.62
2023-04-05T14:08:10.094Z,47.27
2023-04-05T14:09:42.319Z,47.92
2023-04-05T14:11:14.090Z,47.40
2023-04-05T14:12:46.009Z,47.54
2023-04-05T14:14:18.215Z,47.35
2023-04-05T14:15:50.810Z,47.85
2023-04-05T14:17:22.426Z,47.12
2023-04-05T14:18:54.258Z,47.83
2023-04-05T14:20:25.994Z,47.31
2023-04-05T14:21:58.209Z,47.34
2023-04-05T14:23:30.107Z,47.44
2023-04-05T14:25:01.714Z,47.31
2023-04-05T14:26:33.336Z,47.82
2023-04-05T14:28:05.062Z,47.30
2023-04-05T14:29:36.651Z,47.66
2023-04-05T14:31:09.452Z,47.79
2023-04-05T14:32:41.306Z,47.17
2023-04-05T14:34:12.853Z,47.71
2023-04-05T14:35:44.507Z,47.39
2023-04-05T14:37:18.216Z,47.17
2023-04-05T14:38:49.965Z,47.47
2023-04-05T14:40:21.617Z,47.81
2023-04-05T14:41:54.298Z,47.10
2023-04-05T14:43:26.761Z,47.17
2023-04-05T14:44:58.550Z,47.52
2023-04-05T14:46:30.921Z,47.31
2023-04-05T14:48:02.578Z,47.28
2023-04-05T14:49:34.394Z,47.87
2023-04-05T14:51:06.279Z,47.17
2023-04-05T14:52:40.016Z,47.03
2023-04-05T14:54:11.750Z,46.93
2023-04-05T14:55:45.466Z,47.58
2023-04-05T14:57:17.327Z,46.98
2023-04-05T14:58:49.175Z,47.19
2023-04-05T15:00:21.222Z,47.05
2023-04-05T15:01:52.950Z,47.00
2023-04-05T15:03:25.158Z,47.39
2023-04-05T15:05:00.489Z,47.27
2023-04-05T15:06:32.510Z,47.20
2023-04-05T15:08:04.481Z,46.63
2023-04-05T15:09:36.195Z,46.65
2023-04-05T15:11:07.799Z,46.86
2023-04-05T15:12:39.480Z,47.38
2023-04-05T15:14:21.040Z,46.85
2023-04-05T15:16:00.744Z,46.81
2023-04-05T15:17:32.633Z,46.60
2023-04-05T15:19:04.639Z,47.62
2023-04-05T15:20:36.417Z,46.87
2023-04-05T15:22:08.248Z,47.50
2023-04-05T15:23:39.777Z,46.92
2023-04-05T15:25:11.496Z,46.90
2023-04-05T15:26:43.466Z,47.45
2023-04-05T15:28:15.183Z,46.70
2023-04-05T15:29:46.866Z,47.51
2023-04-05T15:31:18.526Z,47.13
2023-04-05T15:32:51.310Z,46.88
2023-04-05T15:34:23.059Z,47.46
2023-04-05T15:35:54.723Z,47.75
2023-04-05T15:37:26.953Z,47.15
2023-04-05T15:38:58.525Z,47.75
2023-04-05T15:40:30.261Z,47.58
2023-04-05T15:42:03.071Z,46.92
2023-04-05T15:43:34.725Z,46.78
2023-04-05T15:45:07.287Z,47.08
2023-04-05T15:46:39.736Z,47.74
2023-04-05T15:48:14.039Z,47.28
2023-04-05T15:49:46.077Z,46.98
2023-04-05T15:51:17.705Z,47.04
2023-04-05T15:52:50.529Z,47.11
2023-04-05T15:54:22.546Z,47.57
2023-04-05T15:55:54.594Z,47.50
2023-04-05T15:57:28.818Z,46.73
2023-04-05T15:59:00.740Z,46.60
2023-04-05T16:00:33.693Z,47.25
2023-04-05T16:02:05.804Z,47.05
2023-04-05T16:03:37.576Z,47.53
2023-04-05T16:05:09.404Z,47.32
2023-04-05T16:06:41.025Z,47.50
2023-04-05T16:08:12.931Z,47.38
2023-04-05T16:09:44.683Z,47.15
2023-04-05T16:11:16.406Z,47.90
2023-04-05T16:12:48.080Z,47.69
2023-04-05T16:14:19.701Z,47.19
2023-04-05T16:15:51.658Z,47.32
2023-04-05T16:17:23.519Z,47.42
2023-04-05T16:18:55.656Z,47.24
2023-04-05T16:20:27.890Z,47.82
2023-04-05T16:22:00.380Z,47.56
2023-04-05T16:23:32.422Z,47.76
2023-04-05T16:25:04.676Z,47.33
2023-04-05T16:26:36.368Z,47.55
2023-04-05T16:28:08.102Z,47.81
2023-04-05T16:29:39.769Z,47.77
2023-04-05T16:31:11.284Z,47.50
2023-04-05T16:32:43.141Z,47.43
2023-04-05T16:34:15.199Z,47.49
2023-04-05T16:35:46.843Z,47.35
2023-04-05T16:37:19.187Z,47.91
2023-04-05T16:38:50.784Z,47.43
2023-04-05T16:40:23.411Z,47.92
2023-04-05T16:41:55.265Z,47.89
2023-04-05T16:43:26.924Z,47.82
2023-04-05T16:44:58.645Z,47.77
2023-04-05T16:46:33.102Z,47.48
2023-04-05T16:48:04.993Z,47.43
2023-04-05T16:49:37.241Z,47.50
2023-04-05T16:51:08.955Z,47.24
2023-04-05T16:52:40.668Z,47.47
2023-04-05T16:54:12.548Z,47.06
2023-04-05T16:55:44.499Z,47.30
2023-04-05T16:57:16.921Z,47.13
2023-04-05T16:58:48.679Z,47.15
2023-04-05T17:00:20.829Z,47.22
2023-04-05T17:01:53.075Z,47.30
2023-04-05T17:03:25.479Z,46.79
2023-04-05T17:04:57.927Z,46.93
2023-04-05T17:06:29.911Z,46.99
2023-04-05T17:08:01.465Z,47.04
2023-04-05T17:09:33.510Z,46.84
2023-04-05T17:11:05.718Z,47.15
2023-04-05T17:12:40.781Z,47.23
2023-04-05T17:14:12.655Z,47.18
2023-04-05T17:15:44.715Z,47.59
2023-04-05T17:17:16.437Z,46.91
2023-04-05T17:18:49.517Z,47.02
2023-04-05T17:20:21.104Z,47.50
2023-04-05T17:21:53.294Z,47.52
2023-04-05T17:23:26.023Z,47.91
2023-04-05T17:24:57.777Z,47.74
2023-04-05T17:26:29.872Z,47.92
2023-04-05T17:28:01.758Z,47.89
2023-04-05T17:29:33.572Z,47.44
2023-04-05T17:31:05.332Z,47.77
2023-04-05T17:32:37.481Z,47.49
2023-04-05T17:34:13.295Z,47.60
2023-04-05T17:35:45.010Z,47.37
2023-04-05T17:37:16.858Z,47.43
2023-04-05T17:38:48.814Z,47.58
2023-04-05T17:40:20.474Z,47.60
2023-04-05T17:41:54.758Z,47.57
2023-04-05T17:43:26.884Z,47.54
2023-04-05T17:44:58.383Z,47.74
2023-04-05T17:46:40.192Z,47.77
2023-04-05T17:48:13.554Z,47.77
2023-04-05T17:49:45.633Z,47.51
2023-04-05T17:51:17.424Z,47.56
2023-04-05T17:52:49.122Z,47.77
2023-04-05T17:54:21.031Z,47.63
2023-04-05T17:55:55.375Z,47.93
2023-04-05T17:57:27.090Z,47.91
2023-04-05T17:58:58.770Z,47.83
2023-04-05T18:00:30.513Z,47.71
2023-04-05T18:02:02.073Z,47.87
2023-04-05T18:03:33.824Z,48.05
2023-04-05T18:05:05.632Z,47.79
2023-04-05T18:06:37.600Z,47.94
2023-04-05T18:08:09.352Z,47.88
2023-04-05T18:09:42.605Z,47.71
2023-04-05T18:11:14.323Z,48.06
2023-04-05T18:12:45.953Z,47.72
2023-04-05T18:14:17.482Z,47.88
2023-04-05T18:15:52.578Z,47.92
2023-04-05T18:17:24.411Z,47.87
2023-04-05T18:18:56.435Z,48.05
2023-04-05T18:20:27.935Z,48.18
2023-04-05T18:21:59.514Z,48.18
2023-04-05T18:23:31.090Z,48.04
2023-04-05T18:25:03.245Z,48.14
2023-04-05T18:26:35.347Z,48.28
2023-04-05T18:28:21.313Z,48.00
2023-04-05T18:29:53.746Z,47.89
2023-04-05T18:31:26.212Z,47.91
2023-04-05T18:32:57.952Z,48.12
2023-04-05T18:34:29.597Z,47.96
2023-04-05T18:36:02.229Z,48.03
2023-04-05T18:37:34.488Z,47.96
2023-04-05T18:39:06.350Z,48.13
2023-04-05T18:40:38.166Z,48.16
2023-04-05T18:42:09.818Z,48.23
2023-04-05T18:43:41.430Z,48.27
2023-04-05T18:45:13.567Z,48.39
2023-04-05T18:46:45.412Z,48.34
2023-04-05T18:48:17.362Z,48.20
2023-04-05T18:49:48.994Z,48.32
2023-04-05T18:51:21.914Z,48.14
2023-04-05T18:52:53.448Z,47.91
2023-04-05T18:54:25.592Z,47.82
2023-04-05T18:55:57.085Z,48.15
2023-04-05T18:57:28.942Z,48.02
2023-04-05T18:59:00.733Z,48.28
2023-04-05T19:00:32.386Z,48.24
2023-04-05T19:02:05.307Z,48.13
2023-04-05T19:03:37.216Z,48.40
2023-04-05T19:05:09.073Z,48.00
2023-04-05T19:06:40.723Z,48.44
2023-04-05T19:08:12.225Z,47.70
2023-04-05T19:09:43.878Z,47.89
2023-04-05T19:11:15.604Z,48.09
2023-04-05T19:12:47.621Z,48.38
2023-04-05T19:14:19.282Z,48.37
2023-04-05T19:15:50.937Z,48.33
2023-04-05T19:17:22.507Z,48.11
2023-04-05T19:18:54.448Z,48.38
2023-04-05T19:20:26.216Z,48.28
2023-04-05T19:21:58.038Z,48.30
2023-04-05T19:23:29.954Z,48.12
2023-04-05T19:25:01.667Z,48.53
2023-04-05T19:26:33.888Z,48.52
2023-04-05T19:28:05.574Z,48.56
2023-04-05T19:29:37.137Z,48.38
2023-04-05T19:31:09.657Z,48.35
2023-04-05T19:32:41.812Z,48.49
2023-04-05T19:34:13.422Z,48.53
2023-04-05T19:35:45.234Z,48.34
2023-04-05T19:37:17.818Z,48.69
2023-04-05T19:38:52.024Z,48.55
2023-04-05T19:40:24.469Z,48.67
2023-04-05T19:41:57.835Z,48.45
2023-04-05T19:43:31.827Z,48.55
2023-04-05T19:45:03.631Z,48.63
2023-04-05T19:46:39.422Z,48.88
2023-04-05T19:48:29.522Z,48.49
2023-04-05T19:50:01.744Z,48.68
2023-04-05T19:51:33.785Z,49.15
2023-04-05T19:53:06.649Z,49.03
2023-04-05T19:54:38.890Z,48.82
2023-04-05T19:56:18.836Z,48.94
2023-04-05T19:57:50.510Z,49.11
2023-04-05T19:59:29.973Z,49.14
2023-04-05T20:01:01.570Z,48.75
2023-04-05T20:02:39.087Z,48.60
2023-04-05T20:04:14.438Z,49.05
2023-04-05T20:05:48.815Z,48.83
2023-04-05T20:07:20.665Z,49.09
2023-04-05T20:08:52.174Z,49.19
2023-04-05T20:10:34.593Z,48.89
2023-04-05T20:12:06.408Z,49.11
2023-04-05T20:13:39.428Z,48.62
2023-04-05T20:15:11.500Z,49.17
2023-04-05T20:16:44.923Z,48.79
2023-04-05T20:18:23.608Z,49.10
2023-04-05T20:20:01.155Z,49.31
2023-04-05T20:21:33.146Z,49.02
2023-04-05T20:23:06.620Z,49.06
2023-04-05T20:24:39.287Z,48.69
2023-04-05T20:26:15.071Z,48.74
2023-04-05T20:27:47.529Z,48.99
2023-04-05T20:29:19.561Z,49.05
2023-04-05T20:30:51.159Z,48.45
2023-04-05T20:32:22.879Z,48.69
2023-04-05T20:34:10.051Z,49.00
2023-04-05T20:35:41.739Z,48.95
2023-04-05T20:37:13.749Z,49.06
2023-04-05T20:38:45.485Z,48.60
2023-04-05T20:40:17.120Z,49.36
2023-04-05T20:41:48.834Z,49.27